EGNV/MME METAR and TAF weather

Enter ICAO airport designator
Station Type Date Time Source
EGNV METAR 2018/01/19 21:20 UTC NOAA

EGNV 192120Z 23010KT 9999 SCT030 02/M01 Q1002


Station Type Date Time Source
EGNV Decoded METAR 2018/01/19 21:20 UTC NOAA

Tees-Side, United Kingdom (EGNV) 54-31N 001-25W
Jan 19, 2018 - 04:20 PM EST / 2018.01.19 2120 UTC
Wind: from the SW (230 degrees) at 12 MPH (10 KT):0
Visibility: greater than 7 mile(s):0
Sky conditions: partly cloudy
Temperature: 35 F (2 C)
Windchill: 26 F (-3 C):1
Dew Point: 30 F (-1 C)
Relative Humidity: 80%
Pressure (altimeter): 29.59 in. Hg (1002 hPa)
ob: EGNV 192120Z 23010KT 9999 SCT030 02/M01 Q1002
cycle: 21

Station Type Date Time Source
EGNV TAF 2016/01/23 12:00 UTC NOAA

TAF EGNV 231059Z 2312/2321 18008KT 9999 FEW030 PROB40 2319/2321 6000 RADZ BKN014


Example: see airport list